METAR v bližini

 

LJLJ - Ljubljana/Brnik, Slovenia
Oddaljenost od postaje: Z 41km
Podatki zajeti: 21/08/2018 05:30
Jasno
Jasno
 Veter iz smeri spremenljiv
Veter: spremenljiv 2 km/h
Temperatura: 16°C
Rosišče: 16°C
Vlažnost: 100%
Tlak: 1018 hPa
Stanje: Jasno
Vidljivost: večja od 10 km
2018/08/21 03:30 LJLJ 210330Z VRB01KT CAVOK 16/16 Q1018 NOSIG
LJMB - Maribor, Slovenia
Oddaljenost od postaje: SV 63km
Podatki zajeti: 21/08/2018 05:30
Jasno
Jasno
 Veter iz smeri spremenljiv
Veter: spremenljiv 2 km/h
Temperatura: 17°C
Rosišče: 15°C
Vlažnost: 88%
Tlak: 1017 hPa
Oblačnost: Jasno
Vidljivost: 10 km
2018/08/21 03:30 LJMB 210330Z AUTO VRB01KT 9999 NCD 17/15 Q1017
 
LJPZ - Portoroz, Slovenia
Oddaljenost od postaje: JZ 130km
Podatki zajeti: 21/08/2018 05:30
Jasno
Jasno
 Veter iz smeri VJV
Veter: VJV 9 km/h
Temperatura: 19°C
Rosišče: 15°C
Vlažnost: 78%
Tlak: 1014 hPa
Oblačnost: Jasno
Vidljivost: 10 km
2018/08/21 03:30 LJPZ 210330Z AUTO 12005KT 9999 NCD 19/15 Q1014
LJCE - Cerklje, Slovenia
Oddaljenost od postaje: VJV 49km
Podatki zajeti: 21/08/2018 05:30
Jasno
Jasno
 Veter iz smeri spremenljiv
Veter: spremenljiv 2 km/h
Temperatura: 17°C
Rosišče: 16°C
Vlažnost: 94%
Tlak: 1017 hPa
Oblačnost: Jasno
Vidljivost: 10 km
2018/08/21 03:30 LJCE 210330Z AUTO VRB01KT 9999 NCD 17/16 Q1017
 
LDZA - Zagreb/Pleso, Croatia
Oddaljenost od postaje: VJV 96km
Podatki zajeti: 21/08/2018 05:30
Jasno
Jasno
 Veter iz smeri JZ
Veter: JZ 4 km/h
Temperatura: 17°C
Rosišče: 16°C
Vlažnost: 94%
Tlak: 1016 hPa
Stanje: Jasno
Vidljivost: večja od 10 km
2018/08/21 03:30 LDZA 210330Z 23002KT CAVOK 17/16 Q1016 NOSIG
LDRI - Rijeka/Omisalj, Croatia
Oddaljenost od postaje: JJZ 109km
Podatki zajeti: 21/08/2018 05:30
Jasno
Jasno
 Veter iz smeri spremenljiv
Veter: spremenljiv 6 km/h
Temperatura: 25°C
Rosišče: 15°C
Vlažnost: 54%
Tlak: 1015 hPa
Stanje: Jasno
Vidljivost: večja od 10 km
2018/08/21 03:30 LDRI 210330Z VRB03KT CAVOK 25/15 Q1015
 
LDPL - Pula, Croatia
Oddaljenost od postaje: JJZ 164km
Podatki zajeti: 21/08/2018 05:30
Jasno
Jasno
 Veter iz smeri VSV
Veter: VSV 13 km/h
Temperatura: 25°C
Rosišče: 15°C
Vlažnost: 54%
Tlak: 1014 hPa
Stanje: Jasno
Vidljivost: večja od 10 km
2018/08/21 03:30 LDPL 210330Z 06007KT CAVOK 25/15 Q1014 NOSIG
LOWK - Klagenfurt(Civ/M, Austria
Oddaljenost od postaje: SZ 76km
Podatki zajeti: 21/08/2018 05:20
Pretežno oblačno
Pretežno oblačno
 Veter iz smeri SZ
Veter: SZ 9 km/h
Temperatura: 17°C
Rosišče: 15°C
Vlažnost: 88%
Tlak: 1020 hPa
Oblačnost: Pretežno oblačno
Vidljivost: 10 km
Podrobnosti o oblakih: Rahlo oblačno 2438 m
Pretežno oblačno 3658 m
2018/08/21 03:20 LOWK 210320Z AUTO 31005KT 9999 FEW080 BKN120 17/15 Q1020
 
LOWG - Graz (mil/Civ), Austria
Oddaljenost od postaje: SSV 100km
Podatki zajeti: 21/08/2018 05:20
Delno oblačno
Delno oblačno
 Veter iz smeri spremenljiv
Veter: spremenljiv 4 km/h
Temperatura: 16°C
Rosišče: 15°C
Vlažnost: 94%
Tlak: 1018 hPa
Oblačnost: Delno oblačno
Vidljivost: 10 km
2018/08/21 03:20 LOWG 210320Z AUTO VRB02KT 9999 NSC 16/15 Q1018
LOWZ - Zell Am See, Austria
Oddaljenost od postaje: SZ 211km
Podatki zajeti: 31/12/2016 17:00
Ni posodobljen
Jasno
Jasno
 Veter iz smeri spremenljiv
Veter: spremenljiv 4 km/h
Temperatura: -4°C
Rosišče: -7°C
Vlažnost: 80%
Tlak: 1031 hPa
Oblačnost: Jasno
2016/12/31 16:00 LOWZ 311600Z VRB02KT 50KM SKC M04/M07 Q1031
 
LOAN - Wr.neustadt East, Austria
Oddaljenost od postaje: SSV 212km
Podatki zajeti: 20/08/2018 20:00
Ni posodobljen
Delno oblačno
Delno oblačno
 Veter iz smeri ZJZ
Veter: ZJZ 9 km/h
Oblačnost: Delno oblačno
Podrobnosti o oblakih: Rahlo oblačno 1829 m
Delno oblačno 3048 m
2018/08/20 18:00 LOAN 201800Z 25005KT 30KM FEW060CU SCT100AC
LIPQ - Ronchi Legionari, Italy
Oddaljenost od postaje: JZ 35km
Podatki zajeti: 21/08/2018 05:20
Jasno
Jasno
 Veter iz smeri S
Veter: S 9 km/h
Temperatura: 22°C
Rosišče: 16°C
Vlažnost: 69%
Tlak: 1015 hPa
Oblačnost: Jasno
Vidljivost: 10 km
2018/08/21 03:20 LIPQ 210320Z AUTO 36005KT 9999 NCD 22/16 Q1015
 
LIVT - Trieste, Italy
Oddaljenost od postaje: ZJZ 109km
Podatki zajeti: 21/08/2018 04:55
Jasno
Jasno
 Veter iz smeri SV
Veter: SV 4 km/h
Temperatura: 25°C
Rosišče: 15°C
Vlažnost: 54%
Tlak: 1014 hPa
Stanje: Jasno
Vidljivost: večja od 10 km
2018/08/21 02:55 LIVT 210255Z 04002KT CAVOK 25/15 Q1014 RMK FEW FEW180 QUK / QUL / VIS MAR 20 KM VIS MIN 9999
LIVO - Tarvisio, Italy
Oddaljenost od postaje: SSZ 49km
Podatki zajeti: 20/08/2018 19:55
Ni posodobljen
Jasno
Jasno
 Veter iz smeri SV
Veter: SV 2 km/h
Temperatura: 24°C
Rosišče: 14°C
Vlažnost: 54%
Tlak: 1018 hPa
Stanje: Jasno
Vidljivost: večja od 10 km
2018/08/20 17:55 LIVO 201755Z 05001KT CAVOK 24/14 Q1018 RMK FEW FEW200 VIS MIN 9999
 
LIPZ - Venezia/Tessera, Italy
Oddaljenost od postaje: ZJZ 217km
Podatki zajeti: 21/08/2018 05:20
Jasno
Jasno
 Veter iz smeri S
Veter: S 11 km/h
Temperatura: 24°C
Rosišče: 16°C
Vlažnost: 61%
Tlak: 1015 hPa
Stanje: Jasno
Vidljivost: večja od 10 km
2018/08/21 03:20 LIPZ 210320Z 36006KT CAVOK 24/16 Q1015 NOSIG
LHSM - Balaton, Hungary
Oddaljenost od postaje: VSV 177km
Podatki zajeti: 20/08/2018 17:45
Ni posodobljen
Rahlo oblačno
Rahlo oblačno
 Veter iz smeri SZ
Veter: SZ 2 km/h
Temperatura: 32°C
Rosišče: 14°C
Vlažnost: 33%
Tlak: 1015 hPa
Oblačnost: Rahlo oblačno
Vidljivost: 10 km
Podrobnosti o oblakih: Rahlo oblačno 1829 m
2018/08/20 15:45 LHSM 201545Z 31001KT 9999 FEW060CB 32/14 Q1015 NOSIG